Time;durP1;ratioP1;P1;durP2;ratioP2;P2;SDS_P1;SDS_P2;PMS_P1;PMS_P2;Temp;Humidity;BMP_temperature;BMP_pressure;BME280_temperature;BME280_humidity;BME280_pressure;Samples;Min_cycle;Max_cycle;Signal;HPM_P1;HPM_P2
2023/01/18 00:00:58;;;;;;;19.10;9.07;;;;;;;9.48;70.99;98914.91;5060695;28;20033;-55
2023/01/18 00:03:24;;;;;;;18.88;8.30;;;;;;;9.58;69.88;98908.97;5059911;28;20025;-52
2023/01/18 00:05:49;;;;;;;20.95;9.38;;;;;;;9.68;69.76;98908.31;5062860;28;20039;-54
2023/01/18 00:08:15;;;;;;;23.30;9.23;;;;;;;9.47;70.72;98913.28;5061816;28;20177;-56
2023/01/18 00:10:42;;;;;;;17.90;8.43;;;;;;;9.81;69.79;98910.72;5060034;28;20266;-52
2023/01/18 00:13:09;;;;;;;18.25;8.27;;;;;;;10.03;68.12;98912.72;5057394;28;20034;-52
2023/01/18 00:15:35;;;;;;;17.60;8.82;;;;;;;9.61;69.32;98908.47;5059610;28;20033;-53
2023/01/18 00:18:02;;;;;;;19.23;8.48;;;;;;;9.65;69.42;98911.47;5056917;28;20033;-54
2023/01/18 00:20:28;;;;;;;21.35;8.75;;;;;;;9.48;70.04;98912.22;5060383;28;20036;-53
2023/01/18 00:22:55;;;;;;;18.38;8.63;;;;;;;9.17;70.56;98911.56;5059345;28;20066;-51
2023/01/18 00:25:23;;;;;;;23.15;9.18;;;;;;;9.09;71.41;98915.38;5059261;28;20025;-52
2023/01/18 00:27:52;;;;;;;16.73;8.32;;;;;;;9.00;72.27;98914.94;5062608;28;20076;-54
2023/01/18 00:30:21;;;;;;;21.02;8.35;;;;;;;9.09;72.32;98914.59;5054434;28;20093;-52
2023/01/18 00:32:48;;;;;;;18.77;8.82;;;;;;;8.64;72.51;98913.28;5059481;28;20112;-53
2023/01/18 00:35:14;;;;;;;15.38;8.25;;;;;;;8.65;73.92;98923.72;5058178;28;20040;-52
2023/01/18 00:37:40;;;;;;;17.77;8.02;;;;;;;9.00;72.69;98933.63;5060544;28;20036;-51
2023/01/18 00:40:07;;;;;;;25.40;9.13;;;;;;;8.94;72.91;98928.38;5058537;28;20037;-55
2023/01/18 00:45:17;;;;;;;27.60;8.85;;;;;;;9.38;70.66;98928.00;5059223;28;20085;-51
2023/01/18 00:47:43;;;;;;;17.50;8.10;;;;;;;9.04;70.96;98918.78;5057791;28;20112;-54
2023/01/18 00:50:09;;;;;;;17.15;8.40;;;;;;;8.92;71.00;98925.94;5059088;28;20117;-50
2023/01/18 00:52:35;;;;;;;18.05;8.50;;;;;;;8.93;72.55;98926.78;5057143;28;20101;-52
2023/01/18 00:55:04;;;;;;;17.45;8.38;;;;;;;9.49;70.17;98932.53;5060538;28;20037;-53
2023/01/18 00:57:30;;;;;;;17.40;8.15;;;;;;;9.51;69.73;98926.94;5056953;28;20025;-56
2023/01/18 00:59:55;;;;;;;18.50;8.07;;;;;;;9.72;69.44;98933.50;5058568;28;20113;-53
2023/01/18 01:02:21;;;;;;;15.50;8.52;;;;;;;9.63;69.63;98937.59;5059090;28;20033;-50
2023/01/18 01:07:31;;;;;;;17.13;8.85;;;;;;;10.56;67.79;98940.13;5054172;28;20040;-50
2023/01/18 01:09:57;;;;;;;14.85;7.82;;;;;;;10.18;70.01;98942.41;5058163;28;20034;-55
2023/01/18 01:26:09;;;;;;;27.23;12.95;;;;;;;8.36;84.81;98939.50;5056812;28;20037;-50
2023/01/18 01:28:49;;;;;;;36.03;15.15;;;;;;;8.91;83.06;98950.97;5056776;28;20052;-51
2023/01/18 01:31:16;;;;;;;34.85;15.90;;;;;;;8.86;82.78;98949.00;5054124;28;20033;-51
2023/01/18 01:33:43;;;;;;;30.50;14.27;;;;;;;8.65;84.57;98944.22;5056012;28;20137;-55
2023/01/18 01:36:11;;;;;;;26.40;13.05;;;;;;;8.62;83.57;98953.50;5058484;28;20052;-55
2023/01/18 01:38:37;;;;;;;27.38;10.80;;;;;;;8.46;83.94;98950.41;5060651;28;20029;-50
2023/01/18 01:41:04;;;;;;;20.83;11.20;;;;;;;8.51;83.54;98951.59;5058057;28;20049;-53
2023/01/18 01:43:39;;;;;;;22.02;10.32;;;;;;;8.22;86.00;98954.03;5056085;28;20048;-53
2023/01/18 01:46:13;;;;;;;24.05;9.45;;;;;;;7.98;87.17;98951.28;5057512;28;20132;-49
2023/01/18 01:48:39;;;;;;;17.35;9.43;;;;;;;8.57;84.92;98961.38;5056142;28;20029;-54
2023/01/18 01:51:04;;;;;;;28.77;11.70;;;;;;;8.43;85.01;98966.06;5059156;28;20059;-55
2023/01/18 01:53:30;;;;;;;21.47;10.53;;;;;;;8.09;85.97;98961.19;5062454;28;20044;-54
2023/01/18 01:55:55;;;;;;;15.40;8.30;;;;;;;8.58;85.48;98971.00;5057421;28;20041;-53
2023/01/18 01:58:27;;;;;;;20.42;9.80;;;;;;;8.72;83.71;98967.06;5058106;28;20101;-55
2023/01/18 02:00:54;;;;;;;17.38;8.63;;;;;;;8.59;83.92;98960.09;5053380;28;20038;-49
2023/01/18 02:03:23;;;;;;;22.75;10.13;;;;;;;8.47;83.70;98970.69;5055876;28;20044;-54
2023/01/18 02:05:56;;;;;;;22.35;9.98;;;;;;;8.91;82.20;98971.50;5057644;28;20065;-50
2023/01/18 02:08:22;;;;;;;16.98;8.90;;;;;;;8.64;81.64;98971.91;5057503;28;20105;-53
2023/01/18 02:10:49;;;;;;;19.10;10.52;;;;;;;8.30;82.70;98978.50;5056484;28;20037;-53
2023/01/18 02:13:16;;;;;;;16.70;9.52;;;;;;;8.25;81.79;98982.88;5056312;28;20037;-53
2023/01/18 02:15:51;;;;;;;22.38;10.45;;;;;;;8.33;82.61;98982.59;5061644;28;20072;-53
2023/01/18 02:18:22;;;;;;;24.27;10.23;;;;;;;8.52;80.87;98980.69;5056240;28;20055;-52
2023/01/18 02:21:22;;;;;;;19.08;10.82;;;;;;;8.46;81.74;98986.91;5059416;28;20033;-53
2023/01/18 02:24:16;;;;;;;17.85;8.98;;;;;;;8.31;82.69;98980.13;5058661;28;20033;-52
2023/01/18 02:27:04;;;;;;;24.90;10.40;;;;;;;8.18;82.69;98981.13;5055374;28;20037;-52
2023/01/18 02:29:56;;;;;;;22.92;9.88;;;;;;;8.20;82.89;98985.41;5058393;28;20097;-54
2023/01/18 02:32:35;;;;;;;22.88;10.35;;;;;;;8.07;83.75;98984.53;5061618;28;20068;-54
2023/01/18 02:35:11;;;;;;;20.85;10.27;;;;;;;7.60;86.18;98985.91;5057306;28;20033;-54
2023/01/18 02:38:01;;;;;;;27.73;11.23;;;;;;;8.06;84.46;98992.75;5056190;28;20041;-55
2023/01/18 02:40:36;;;;;;;18.80;9.02;;;;;;;8.31;83.18;99000.66;5060068;28;20088;-53
2023/01/18 02:48:41;;;;;;;18.67;10.05;;;;;;;7.87;85.37;98984.78;5057152;28;20036;-52
2023/01/18 02:51:06;;;;;;;22.80;10.02;;;;;;;7.98;84.97;98992.03;5054800;28;20033;-54
2023/01/18 02:53:37;;;;;;;21.58;10.38;;;;;;;7.99;86.08;98991.00;5056911;28;20057;-54
2023/01/18 02:56:17;;;;;;;23.50;10.63;;;;;;;8.33;83.75;98995.91;5059452;28;20041;-54
2023/01/18 02:58:46;;;;;;;19.52;9.07;;;;;;;7.99;85.12;98993.66;5054920;28;20041;-52
2023/01/18 03:01:25;;;;;;;19.40;10.13;;;;;;;8.18;84.18;98998.94;5056873;28;20053;-51
2023/01/18 03:03:55;;;;;;;21.73;10.00;;;;;;;8.15;83.94;98991.41;5054147;28;20040;-52
2023/01/18 03:06:23;;;;;;;20.55;10.43;;;;;;;7.87;85.44;98990.94;5052738;28;20029;-56
2023/01/18 03:08:52;;;;;;;21.15;10.10;;;;;;;8.17;85.21;98992.81;5052937;28;20057;-49
2023/01/18 03:11:28;;;;;;;22.80;10.68;;;;;;;8.00;84.53;98992.63;5054618;28;20049;-54
2023/01/18 03:13:58;;;;;;;19.38;9.30;;;;;;;8.09;85.35;98998.47;5054243;28;20060;-55
2023/01/18 03:16:29;;;;;;;19.85;9.32;;;;;;;8.41;83.32;98992.91;5054723;28;20025;-55
2023/01/18 03:19:03;;;;;;;28.60;11.32;;;;;;;7.89;85.93;98994.19;5056677;28;20029;-55
2023/01/18 03:21:39;;;;;;;20.83;9.88;;;;;;;7.79;86.22;98991.22;5054623;28;20026;-55
2023/01/18 03:24:08;;;;;;;20.88;9.60;;;;;;;8.39;83.75;98988.84;5054628;28;20033;-53
2023/01/18 03:26:38;;;;;;;19.20;8.68;;;;;;;8.20;84.29;98993.41;5056729;28;20067;-51
2023/01/18 03:35:09;;;;;;;17.20;9.05;;;;;;;7.97;84.04;98994.91;5054086;28;20120;-53
2023/01/18 03:37:41;;;;;;;22.33;9.35;;;;;;;7.90;85.73;98997.66;5056203;28;20025;-52
2023/01/18 03:40:14;;;;;;;23.30;9.85;;;;;;;7.64;87.15;98996.13;5054075;28;20025;-54
2023/01/18 03:42:47;;;;;;;19.58;8.38;;;;;;;7.75;88.10;99003.34;5055904;28;20037;-54
2023/01/18 03:45:25;;;;;;;27.42;9.50;;;;;;;7.78;86.66;99002.09;5056927;28;20032;-50
2023/01/18 03:47:51;;;;;;;16.30;8.82;;;;;;;7.99;86.29;99003.50;5054266;28;20030;-55
2023/01/18 03:50:18;;;;;;;26.88;10.40;;;;;;;8.14;84.87;99005.75;5059196;28;20059;-52
2023/01/18 03:52:50;;;;;;;19.15;10.27;;;;;;;8.04;85.71;99006.28;5056197;28;20040;-52
2023/01/18 03:55:23;;;;;;;15.98;8.60;;;;;;;7.91;86.67;99009.94;5058192;28;20025;-56
2023/01/18 03:57:59;;;;;;;17.02;8.98;;;;;;;7.61;87.93;99008.00;5058639;28;20025;-54
2023/01/18 04:00:25;;;;;;;18.10;8.77;;;;;;;7.74;88.70;99015.03;5057112;28;20044;-55
2023/01/18 04:02:51;;;;;;;18.05;8.77;;;;;;;7.74;88.17;99017.69;5059475;28;20025;-51
2023/01/18 04:05:18;;;;;;;22.05;8.77;;;;;;;7.38;89.55;99021.94;5061576;28;20037;-53
2023/01/18 04:07:43;;;;;;;19.35;9.77;;;;;;;7.30;93.15;99025.72;5060039;28;20048;-55
2023/01/18 04:10:10;;;;;;;21.08;8.63;;;;;;;8.07;88.17;99019.16;5061654;28;20037;-51
2023/01/18 04:12:36;;;;;;;21.95;9.15;;;;;;;8.38;85.60;99024.50;5058591;28;20036;-50
2023/01/18 04:15:03;;;;;;;18.00;9.85;;;;;;;8.06;86.07;99030.84;5061850;28;20033;-54
2023/01/18 04:17:29;;;;;;;19.10;10.13;;;;;;;8.04;86.62;99028.41;5059962;28;20029;-54
2023/01/18 04:19:55;;;;;;;18.13;9.00;;;;;;;7.71;89.24;99034.91;5057698;28;20040;-52
2023/01/18 04:22:20;;;;;;;16.08;8.63;;;;;;;7.81;89.92;99033.59;5057770;28;20053;-54
2023/01/18 04:24:46;;;;;;;19.60;9.20;;;;;;;7.87;89.02;99041.50;5059640;28;20065;-53
2023/01/18 04:27:11;;;;;;;18.47;9.03;;;;;;;8.04;88.91;99039.06;5065377;28;20339;-50
2023/01/18 04:29:37;;;;;;;16.60;9.50;;;;;;;7.67;90.75;99038.25;5065966;28;20055;-54
2023/01/18 04:32:04;;;;;;;17.58;9.25;;;;;;;7.94;90.56;99037.97;5064039;28;20108;-51
2023/01/18 04:34:32;;;;;;;18.10;9.23;;;;;;;8.08;90.10;99044.75;5055194;28;20058;-54
2023/01/18 04:36:59;;;;;;;20.42;9.65;;;;;;;7.87;91.99;99038.84;5063867;28;20041;-54
2023/01/18 04:39:24;;;;;;;17.40;7.65;;;;;;;7.64;95.16;99050.13;5059281;28;20042;-50
2023/01/18 04:41:50;;;;;;;25.52;10.32;;;;;;;7.18;99.21;99049.53;5058776;28;20044;-51
2023/01/18 04:44:16;;;;;;;21.35;11.10;;;;;;;7.48;98.84;99043.53;5057536;28;20029;-51
2023/01/18 04:46:42;;;;;;;27.20;10.98;;;;;;;7.86;95.52;99042.56;5061175;28;20068;-52
2023/01/18 04:49:14;;;;;;;27.75;11.85;;;;;;;7.55;97.02;99048.81;5061155;28;20059;-52
2023/01/18 04:51:40;;;;;;;33.60;13.15;;;;;;;7.91;95.96;99055.16;5059047;28;20045;-55
2023/01/18 04:54:06;;;;;;;23.88;11.00;;;;;;;7.65;97.25;99058.94;5059501;28;20057;-50
2023/01/18 04:56:32;;;;;;;25.40;9.80;;;;;;;7.93;94.61;99057.63;5058548;28;20040;-52
2023/01/18 04:58:57;;;;;;;25.25;10.25;;;;;;;7.75;95.21;99060.06;5058598;28;20144;-52
2023/01/18 05:01:23;;;;;;;18.50;8.53;;;;;;;7.52;96.47;99066.00;5059249;28;20048;-51
2023/01/18 05:03:52;;;;;;;17.48;8.93;;;;;;;7.57;95.24;99065.34;5057355;28;20040;-52
2023/01/18 05:06:21;;;;;;;17.00;7.93;;;;;;;7.41;97.14;99066.72;5062001;28;20033;-52
2023/01/18 05:08:47;;;;;;;20.20;9.05;;;;;;;7.77;94.87;99064.34;5057092;28;20098;-55
2023/01/18 05:11:15;;;;;;;26.25;11.25;;;;;;;7.45;96.14;99073.25;5061860;28;20037;-50
2023/01/18 05:13:41;;;;;;;29.50;12.05;;;;;;;7.38;99.53;99072.47;5061096;28;20085;-56
2023/01/18 05:16:11;;;;;;;;;;;;;;;7.68;97.82;99077.13;5060022;28;20052;-51
2023/01/18 05:18:37;;;;;;;30.23;12.80;;;;;;;7.44;98.63;99072.41;5055266;28;19924;-51
2023/01/18 05:21:02;;;;;;;24.42;11.80;;;;;;;7.94;95.64;99075.22;5056306;28;20029;-52
2023/01/18 05:23:28;;;;;;;28.73;13.00;;;;;;;8.23;93.43;99083.50;5058771;28;20025;-51
2023/01/18 05:25:55;;;;;;;23.63;11.27;;;;;;;8.00;95.42;99084.97;5057949;28;20266;-51
2023/01/18 05:28:22;;;;;;;25.25;12.38;;;;;;;8.09;95.73;99089.00;5060030;28;20287;-52
2023/01/18 05:30:49;;;;;;;24.63;11.10;;;;;;;8.16;97.02;99086.22;5055190;28;21200;-52
2023/01/18 05:33:16;;;;;;;20.52;9.95;;;;;;;8.00;97.24;99084.97;5056159;28;20057;-56
2023/01/18 05:35:49;;;;;;;22.05;11.07;;;;;;;7.95;96.08;99095.47;5061839;28;20100;-54
2023/01/18 05:38:16;;;;;;;15.77;8.23;;;;;;;7.50;98.89;99097.34;5059523;28;20025;-53
2023/01/18 05:40:44;;;;;;;15.85;7.47;;;;;;;7.27;100.00;99093.44;5058837;28;20025;-52
2023/01/18 05:43:11;;;;;;;15.55;7.82;;;;;;;7.56;100.00;99099.13;5058282;28;20436;-50
2023/01/18 05:45:37;;;;;;;25.70;9.75;;;;;;;7.53;100.00;99098.75;5058081;28;20033;-54
2023/01/18 05:48:02;;;;;;;23.35;9.65;;;;;;;7.37;100.00;99108.06;5058731;28;20053;-52
2023/01/18 05:50:28;;;;;;;21.00;9.45;;;;;;;7.58;99.60;99107.69;5060279;28;20029;-52
2023/01/18 05:52:57;;;;;;;16.53;7.93;;;;;;;7.35;100.00;99108.31;5056844;28;20064;-52
2023/01/18 05:55:23;;;;;;;14.98;7.97;;;;;;;7.31;100.00;99105.25;5058842;28;20108;-55
2023/01/18 05:57:48;;;;;;;16.42;8.38;;;;;;;7.33;100.00;99113.03;5058738;28;20037;-53
2023/01/18 06:00:14;;;;;;;14.07;6.80;;;;;;;7.41;100.00;99114.59;5056714;28;20072;-55
2023/01/18 06:02:42;;;;;;;16.30;7.68;;;;;;;7.80;97.15;99117.94;5058157;28;20044;-55
2023/01/18 06:05:08;;;;;;;20.27;7.78;;;;;;;7.97;95.41;99117.38;5056826;28;20132;-53
2023/01/18 06:07:34;;;;;;;17.42;8.05;;;;;;;7.96;95.35;99121.06;5056325;28;20061;-54
2023/01/18 06:10:00;;;;;;;18.23;7.40;;;;;;;8.08;92.81;99123.81;5060090;28;20059;-52
2023/01/18 06:12:25;;;;;;;16.03;7.40;;;;;;;7.81;93.67;99127.53;5058235;28;20285;-55
2023/01/18 06:14:50;;;;;;;13.37;6.63;;;;;;;7.60;93.55;99118.91;5058683;28;20117;-51
2023/01/18 06:17:16;;;;;;;12.00;6.80;;;;;;;8.06;91.11;99129.34;5059755;28;20040;-54
2023/01/18 06:19:42;;;;;;;16.50;6.67;;;;;;;7.77;93.25;99133.53;5054653;28;20069;-49
2023/01/18 06:22:07;;;;;;;15.20;8.02;;;;;;;7.89;90.31;99137.94;5059213;28;20122;-55
2023/01/18 06:24:33;;;;;;;19.17;7.77;;;;;;;7.75;91.38;99139.06;5058841;28;20052;-53
2023/01/18 06:26:59;;;;;;;13.50;7.50;;;;;;;7.20;95.43;99135.22;5056914;28;20285;-53
2023/01/18 06:29:25;;;;;;;14.52;8.85;;;;;;;7.24;95.34;99131.09;5057138;28;20037;-55
2023/01/18 06:31:51;;;;;;;19.05;8.00;;;;;;;7.23;95.67;99137.44;5059787;28;20033;-53
2023/01/18 06:34:16;;;;;;;15.30;8.45;;;;;;;7.64;93.79;99139.78;5055057;28;20053;-51
2023/01/18 06:36:44;;;;;;;16.27;8.90;;;;;;;7.85;91.62;99152.72;5062592;28;20056;-52
2023/01/18 06:39:10;;;;;;;16.83;7.60;;;;;;;7.50;92.66;99147.88;5058787;28;20039;-49
2023/01/18 06:41:36;;;;;;;21.02;8.85;;;;;;;7.68;91.43;99149.75;5063770;28;20029;-51
2023/01/18 06:44:02;;;;;;;19.92;7.95;;;;;;;7.30;95.17;99164.78;5055451;28;20124;-50
2023/01/18 06:46:28;;;;;;;15.35;7.07;;;;;;;7.25;95.31;99169.13;5056076;28;20029;-54
2023/01/18 06:48:54;;;;;;;17.98;8.13;;;;;;;7.09;95.98;99170.44;5054055;28;20048;-50
2023/01/18 06:51:20;;;;;;;13.53;6.13;;;;;;;7.19;97.30;99170.81;5058862;28;20037;-53
2023/01/18 06:53:48;;;;;;;17.58;10.88;;;;;;;7.13;97.16;99183.09;5055909;28;20093;-51
2023/01/18 06:56:15;;;;;;;18.92;9.05;;;;;;;7.18;94.81;99185.13;5054226;28;20093;-51
2023/01/18 06:58:41;;;;;;;17.95;8.23;;;;;;;7.09;97.03;99175.75;5056773;28;20029;-52
2023/01/18 07:01:07;;;;;;;11.80;6.47;;;;;;;6.98;96.50;99180.75;5059541;28;20033;-54
2023/01/18 07:03:32;;;;;;;17.43;8.30;;;;;;;7.20;94.89;99185.72;5058825;28;20406;-50
2023/01/18 07:06:00;;;;;;;17.60;6.70;;;;;;;7.49;94.68;99194.13;5057854;28;20033;-55
2023/01/18 07:08:29;;;;;;;19.20;8.90;;;;;;;7.39;94.79;99196.47;5057801;28;20282;-53
2023/01/18 07:10:56;;;;;;;18.60;8.02;;;;;;;7.14;95.81;99190.06;5058025;28;20159;-51
2023/01/18 07:13:23;;;;;;;19.58;9.43;;;;;;;7.45;95.12;99195.59;5056938;28;20029;-51
2023/01/18 07:16:00;;;;;;;19.33;9.02;;;;;;;7.48;94.54;99197.81;5058334;28;20037;-54
2023/01/18 07:18:28;;;;;;;20.70;9.27;;;;;;;7.69;92.90;99201.16;5057778;28;20056;-54
2023/01/18 07:21:05;;;;;;;32.08;10.35;;;;;;;7.44;94.54;99200.09;5058909;28;20052;-52
2023/01/18 07:23:34;;;;;;;15.93;8.20;;;;;;;7.35;93.90;99206.69;5056237;28;20089;-49
2023/01/18 07:26:15;;;;;;;19.00;8.20;;;;;;;7.24;96.06;99202.88;5061355;28;20071;-53
2023/01/18 07:28:42;;;;;;;18.38;8.07;;;;;;;7.14;95.61;99205.16;5056410;28;20025;-53
2023/01/18 07:31:08;;;;;;;24.38;9.18;;;;;;;7.10;97.84;99204.81;5064112;28;20043;-52
2023/01/18 07:33:34;;;;;;;18.07;8.93;;;;;;;7.13;96.91;99208.84;5063736;28;20073;-55
2023/01/18 07:36:03;;;;;;;20.08;7.93;;;;;;;7.37;94.79;99209.97;5064139;28;20625;-53
2023/01/18 07:38:29;;;;;;;22.75;9.40;;;;;;;7.14;96.70;99208.66;5058491;28;20033;-53
2023/01/18 07:41:07;;;;;;;18.00;7.93;;;;;;;6.95;97.91;99213.06;5062547;28;20036;-53
2023/01/18 07:43:33;;;;;;;15.88;8.70;;;;;;;7.00;98.71;99213.22;5062205;28;20033;-53
2023/01/18 07:46:00;;;;;;;17.63;8.55;;;;;;;6.84;98.96;99221.69;5058719;28;20047;-50
2023/01/18 07:48:26;;;;;;;17.38;8.23;;;;;;;7.00;97.73;99223.88;5058248;28;20041;-54
2023/01/18 07:50:53;;;;;;;23.48;8.73;;;;;;;7.15;98.54;99230.72;5057924;28;20052;-53
2023/01/18 07:53:20;;;;;;;19.80;8.35;;;;;;;7.22;97.03;99223.56;5058695;28;20049;-51
2023/01/18 07:55:46;;;;;;;17.80;7.90;;;;;;;6.89;97.63;99230.66;5060337;28;20033;-56
2023/01/18 07:58:12;;;;;;;20.88;8.65;;;;;;;6.85;98.97;99229.44;5061034;28;20064;-54
2023/01/18 08:00:37;;;;;;;16.97;8.17;;;;;;;7.18;97.07;99235.66;5061189;28;20033;-56
2023/01/18 08:03:03;;;;;;;33.27;10.10;;;;;;;7.55;95.18;99235.81;5062818;28;20281;-53
2023/01/18 08:05:30;;;;;;;16.90;7.10;;;;;;;7.45;93.93;99240.81;5063947;28;20036;-54
2023/01/18 08:07:56;;;;;;;18.95;8.07;;;;;;;7.54;94.14;99244.03;5062047;28;20049;-54
2023/01/18 08:10:25;;;;;;;11.95;6.15;;;;;;;7.65;93.87;99247.84;5062295;28;20033;-53
2023/01/18 08:12:51;;;;;;;18.27;8.50;;;;;;;7.48;93.11;99256.34;5059957;28;20044;-55
2023/01/18 08:15:16;;;;;;;15.88;7.93;;;;;;;7.62;92.07;99250.94;5059861;28;20033;-52
2023/01/18 08:17:42;;;;;;;17.80;8.40;;;;;;;7.56;93.14;99256.06;5062971;28;20048;-54
2023/01/18 08:20:08;;;;;;;18.47;8.57;;;;;;;7.76;92.36;99260.44;5057547;28;20282;-49
2023/01/18 08:22:36;;;;;;;19.45;9.10;;;;;;;7.50;92.18;99259.59;5058057;28;20052;-54
2023/01/18 08:25:03;;;;;;;17.15;7.90;;;;;;;7.82;90.83;99264.91;5060243;28;20091;-56
2023/01/18 08:27:29;;;;;;;19.73;9.05;;;;;;;7.86;90.82;99268.78;5064091;28;20033;-53
2023/01/18 08:29:55;;;;;;;16.00;8.88;;;;;;;7.94;91.09;99272.22;5058968;28;20060;-55
2023/01/18 08:32:22;;;;;;;15.88;8.57;;;;;;;7.59;91.73;99265.47;5057624;28;20081;-54
2023/01/18 08:34:47;;;;;;;14.52;7.65;;;;;;;7.74;91.53;99281.16;5060530;28;20036;-52
2023/01/18 08:37:12;;;;;;;18.30;9.23;;;;;;;7.81;91.37;99284.56;5059722;28;20037;-53
2023/01/18 08:39:38;;;;;;;20.50;9.83;;;;;;;7.71;93.37;99286.91;5057431;28;20030;-50
2023/01/18 08:42:04;;;;;;;19.23;9.03;;;;;;;8.20;91.55;99294.31;5060072;28;20053;-53
2023/01/18 08:44:30;;;;;;;17.02;9.50;;;;;;;7.77;96.54;99290.56;5064679;28;20029;-54
2023/01/18 08:46:55;;;;;;;23.47;10.33;;;;;;;8.00;95.96;99295.28;5058784;28;20053;-52
2023/01/18 08:49:21;;;;;;;23.83;10.20;;;;;;;7.99;94.30;99297.16;5060142;28;20095;-54
2023/01/18 08:51:47;;;;;;;19.55;9.50;;;;;;;7.98;94.19;99292.03;5063917;28;20271;-52
2023/01/18 08:54:12;;;;;;;24.17;10.27;;;;;;;7.82;94.49;99304.03;5061821;28;20090;-54
2023/01/18 08:56:37;;;;;;;19.37;9.77;;;;;;;8.48;92.81;99299.22;5062950;28;20056;-54
2023/01/18 08:59:07;;;;;;;22.60;9.48;;;;;;;8.15;93.76;99297.63;5059273;28;20029;-54
2023/01/18 09:01:33;;;;;;;18.55;9.35;;;;;;;8.20;93.47;99299.66;5061997;28;20097;-48
2023/01/18 09:03:58;;;;;;;22.13;10.60;;;;;;;8.69;91.52;99311.31;5056973;28;20037;-50
2023/01/18 09:06:30;;;;;;;21.97;9.63;;;;;;;8.71;89.48;99309.25;5059153;28;20270;-52
2023/01/18 09:08:55;;;;;;;20.95;9.15;;;;;;;8.74;90.11;99321.31;5056052;28;20045;-54
2023/01/18 09:11:22;;;;;;;19.48;8.82;;;;;;;8.60;88.30;99313.44;5058195;28;20022;-54
2023/01/18 09:13:47;;;;;;;17.83;9.27;;;;;;;8.40;90.85;99312.78;5058700;28;20042;-52
2023/01/18 09:16:13;;;;;;;16.67;8.10;;;;;;;8.31;91.31;99322.94;5056795;28;20281;-53
2023/01/18 09:18:38;;;;;;;22.08;9.38;;;;;;;8.57;89.79;99329.88;5058000;28;20033;-53
2023/01/18 09:21:09;;;;;;;19.77;8.50;;;;;;;8.50;89.96;99329.13;5056512;28;20093;-55
2023/01/18 09:23:36;;;;;;;19.73;9.93;;;;;;;7.88;93.09;99327.94;5058361;28;20033;-53
2023/01/18 09:26:08;;;;;;;16.38;9.45;;;;;;;8.53;91.14;99346.53;5062013;28;20037;-54
2023/01/18 09:28:34;;;;;;;21.77;9.27;;;;;;;9.76;85.60;99351.91;5056454;28;20047;-55
2023/01/18 09:31:05;;;;;;;23.83;11.60;;;;;;;11.36;78.98;99351.31;5057836;28;20092;-56
2023/01/18 09:33:31;;;;;;;18.63;8.43;;;;;;;11.81;75.09;99352.47;5059899;28;20301;-55
2023/01/18 09:36:00;;;;;;;13.40;7.63;;;;;;;12.70;71.41;99360.09;5058250;28;20048;-54
2023/01/18 09:38:26;;;;;;;14.07;7.80;;;;;;;13.03;69.04;99361.06;5059987;28;20032;-56
2023/01/18 09:40:53;;;;;;;13.30;7.37;;;;;;;13.83;65.23;99365.25;5057766;28;20037;-53
2023/01/18 09:43:30;;;;;;;;;;;;;;;14.19;64.03;99374.47;5061072;28;20034;-56
2023/01/18 09:45:55;;;;;;;12.65;7.45;;;;;;;14.91;62.43;99379.63;5059874;28;19916;-55
2023/01/18 09:48:36;;;;;;;;;;;;;;;15.45;59.83;99379.59;5059480;28;20071;-54
2023/01/18 09:51:14;;;;;;;12.90;6.63;;;;;;;14.42;59.00;99377.91;5059495;28;19959;-54
2023/01/18 09:53:58;;;;;;;14.67;7.23;;;;;;;14.77;58.36;99381.97;5059313;28;20048;-55
2023/01/18 09:56:27;;;;;;;14.23;7.80;;;;;;;15.13;57.31;99394.81;5062260;28;20281;-54
2023/01/18 09:59:10;;;;;;;13.77;7.13;;;;;;;15.31;57.09;99400.81;5058714;28;20292;-57
2023/01/18 10:01:37;;;;;;;15.97;7.13;;;;;;;14.52;56.87;99398.69;5058631;28;20270;-58
2023/01/18 10:04:11;;;;;;;14.63;7.60;;;;;;;15.02;57.42;99391.25;5060237;28;20270;-54
2023/01/18 10:06:48;;;;;;;12.37;7.20;;;;;;;15.75;54.94;99395.03;5055666;28;20274;-55
2023/01/18 10:09:18;;;;;;;10.68;6.82;;;;;;;15.74;55.74;99390.72;5059722;28;20305;-55
2023/01/18 10:12:00;;;;;;;11.17;6.43;;;;;;;14.43;54.72;99405.63;5055179;28;20041;-56
2023/01/18 10:14:29;;;;;;;15.27;6.63;;;;;;;14.38;55.69;99392.94;5060337;28;20270;-52
2023/01/18 10:16:59;;;;;;;14.27;7.10;;;;;;;14.02;57.05;99395.28;5056884;28;20306;-51
2023/01/18 10:19:28;;;;;;;15.83;8.07;;;;;;;15.07;55.49;99390.47;5059584;28;20282;-55
2023/01/18 10:22:13;;;;;;;18.10;7.40;;;;;;;15.67;54.26;99397.44;5059917;28;20266;-56
2023/01/18 10:24:56;;;;;;;18.67;7.03;;;;;;;16.11;52.99;99407.03;5060670;28;20381;-55
2023/01/18 10:28:07;;;;;;;16.17;7.23;;;;;;;16.36;52.02;99383.84;5045026;28;20320;-55
2023/01/18 10:30:45;;;;;;;13.93;6.87;;;;;;;15.97;52.11;99401.34;5053081;28;20333;-53
2023/01/18 10:33:20;;;;;;;12.83;7.00;;;;;;;15.78;52.76;99397.22;5054752;28;20285;-54
2023/01/18 10:35:49;;;;;;;14.27;6.97;;;;;;;16.62;51.34;99398.16;5058579;28;20282;-55
2023/01/18 10:38:20;;;;;;;15.60;7.07;;;;;;;15.88;51.68;99407.25;5053405;28;20293;-59
2023/01/18 10:40:53;;;;;;;13.70;6.70;;;;;;;17.04;50.48;99394.31;5057286;28;20293;-55
2023/01/18 10:43:22;;;;;;;14.57;6.57;;;;;;;16.35;50.35;99401.91;5056100;28;20271;-54
2023/01/18 10:45:47;;;;;;;15.47;7.97;;;;;;;16.88;50.33;99404.31;5055240;28;20297;-50
2023/01/18 10:48:16;;;;;;;12.90;6.07;;;;;;;16.75;50.24;99396.78;5052945;28;20361;-53
2023/01/18 10:50:45;;;;;;;15.57;7.10;;;;;;;16.71;49.65;99398.38;5057326;28;20037;-53
2023/01/18 10:53:37;;;;;;;11.87;7.17;;;;;;;16.24;49.97;99394.91;5055464;28;20347;-56
2023/01/18 10:56:09;;;;;;;12.93;6.40;;;;;;;17.17;49.16;99392.94;5054085;28;20301;-56
2023/01/18 10:59:04;;;;;;;14.87;7.03;;;;;;;16.93;49.41;99400.81;5055289;28;20282;-56
2023/01/18 11:01:35;;;;;;;11.90;6.57;;;;;;;17.00;49.95;99408.66;5053431;28;20283;-54
2023/01/18 11:04:28;;;;;;;12.67;6.23;;;;;;;18.67;48.35;99402.06;5054459;28;20270;-52
2023/01/18 11:07:03;;;;;;;11.47;6.73;;;;;;;18.71;46.33;99410.44;5054567;28;20286;-53
2023/01/18 11:09:40;;;;;;;14.30;6.63;;;;;;;19.80;45.34;99418.19;5059761;28;20262;-56
2023/01/18 11:12:40;;;;;;;11.55;6.22;;;;;;;20.05;45.00;99416.25;5054203;28;20049;-55
2023/01/18 11:15:14;;;;;;;13.13;5.50;;;;;;;18.27;45.91;99409.44;5061929;28;20037;-51
2023/01/18 11:17:56;;;;;;;11.23;6.33;;;;;;;18.36;45.77;99410.44;5060290;28;20292;-54
2023/01/18 11:20:34;;;;;;;10.67;6.13;;;;;;;18.34;45.80;99409.94;5055406;28;20292;-50
2023/01/18 11:23:16;;;;;;;11.47;5.60;;;;;;;18.71;45.54;99405.84;5055778;28;20064;-52
2023/01/18 11:25:55;;;;;;;10.27;5.37;;;;;;;19.08;45.14;99410.91;5056596;28;20282;-54
2023/01/18 11:28:25;;;;;;;10.10;5.87;;;;;;;19.96;44.82;99418.00;5053040;28;20034;-53
2023/01/18 11:30:55;;;;;;;8.93;5.10;;;;;;;19.41;43.50;99420.03;5055800;28;20052;-54
2023/01/18 11:33:23;;;;;;;11.00;5.03;;;;;;;20.24;43.15;99421.66;5054971;28;20045;-52
2023/01/18 11:35:58;;;;;;;10.30;5.70;;;;;;;19.60;42.85;99433.63;5056859;28;20037;-54
2023/01/18 11:38:29;;;;;;;10.83;5.40;;;;;;;20.26;42.39;99443.06;5056624;28;20026;-52
2023/01/18 11:41:05;;;;;;;14.90;5.07;;;;;;;20.01;41.80;99426.06;5053561;28;20028;-55
2023/01/18 11:43:34;;;;;;;10.25;5.20;;;;;;;20.19;42.62;99433.41;5054207;28;20044;-52
2023/01/18 11:46:09;;;;;;;10.07;5.27;;;;;;;21.39;41.75;99434.09;5057171;28;20048;-53
2023/01/18 11:48:43;;;;;;;10.37;4.90;;;;;;;20.62;41.13;99445.25;5057744;28;20063;-51
2023/01/18 11:51:22;;;;;;;8.97;4.23;;;;;;;20.31;41.48;99443.03;5059048;28;20025;-55
2023/01/18 11:53:53;;;;;;;15.30;4.83;;;;;;;20.61;42.17;99438.19;5060211;28;20092;-52
2023/01/18 11:56:21;;;;;;;10.33;4.70;;;;;;;19.82;42.56;99428.75;5059154;28;20057;-53
2023/01/18 11:58:48;;;;;;;9.03;4.27;;;;;;;20.35;41.67;99438.59;5053748;28;20033;-53
2023/01/18 12:01:28;;;;;;;13.83;4.70;;;;;;;18.57;42.35;99448.19;5058073;28;20037;-54
2023/01/18 12:04:04;;;;;;;10.00;4.53;;;;;;;20.17;42.19;99430.19;5056518;28;20033;-50
2023/01/18 12:06:44;;;;;;;7.93;4.35;;;;;;;20.32;41.83;99431.06;5056181;28;20026;-53
2023/01/18 12:09:51;;;;;;;7.33;4.07;;;;;;;20.36;41.29;99440.22;5058490;28;20056;-54
2023/01/18 12:12:41;;;;;;;9.87;4.57;;;;;;;19.83;42.55;99447.44;5056009;28;20030;-55
2023/01/18 12:16:07;;;;;;;10.90;4.43;;;;;;;19.13;42.76;99446.06;5051037;28;20051;-53